METAR Data
IDs: Format: Raw Decoded Include TAF

Data at: 1807 UTC 16 Oct 2021

KSSF 161753Z 36009KT 10SM CLR 24/06 A3033 RMK AO2 SLP264 T02390061 10239 20167 58004
KSSF 161653Z VRB06G19KT 10SM CLR 23/06 A3036 RMK AO2 SLP272 T02330056
KSSF 161553Z 05014G24KT 10SM CLR 21/05 A3036 RMK AO2 SLP272 T02110050
KSSF 161453Z 05010G18KT 10SM CLR 20/07 A3035 RMK AO2 SLP268 T02000067 53018
KSSF 161353Z 03012G18KT 10SM CLR 18/07 A3032 RMK AO2 SLP260 T01830067
KSSF 161253Z 03007G15KT 10SM CLR 17/07 A3030 RMK AO2 SLP255 T01670067
KSSF 161153Z 03007KT 10SM CLR 17/07 A3029 RMK AO2 SLP249 70042 T01720067 10211 20172 53024
KSSF 161053Z AUTO 03009KT 10SM CLR 18/07 A3026 RMK AO2 SLP238 T01780067
KSSF 160953Z AUTO 03009G17KT 10SM CLR 18/07 A3023 RMK AO2 SLP230 T01830067
KSSF 160853Z AUTO 02009G18KT 10SM CLR 19/07 A3022 RMK AO2 SLP225 T01940072 51013
KSSF 160753Z AUTO 01012G21KT 10SM SCT080 20/08 A3021 RMK AO2 SLP218 T02000078
KSSF 160653Z AUTO 02013G23KT 10SM BKN080 21/08 A3020 RMK AO2 PK WND 01027/0613 SLP215 T02060083
KSSF 160553Z AUTO 02011G26KT 10SM CLR 21/10 A3018 RMK AO2 PK WND 02027/0529 SLP209 T02110100 10261 20211 51025
KSSF 160453Z AUTO 02011G23KT 10SM CLR 22/11 A3017 RMK AO2 SLP205 T02220111 403440222
KSSF 160353Z AUTO 02012G23KT 10SM CLR 23/12 A3014 RMK AO2 SLP196 T02330122
KSSF 160253Z AUTO 03015G23KT 10SM FEW065 24/13 A3011 RMK AO2 SLP184 T02390133 53036
KSSF 160153Z 02008KT 10SM CLR 24/15 A3005 RMK AO2 SLP167 T02440150
KSSF 160053Z 02007KT 10SM CLR 25/16 A3003 RMK AO2 SLP158 T02500156
KSSF 152353Z 01009G21KT 10SM CLR 27/17 A3000 RMK AO2 SLP147 60042 T02670167 10344 20244 51020
KSSF 152253Z 01005KT 10SM CLR 27/18 A2998 RMK AO2 RAE04 SLP140 P0000 T02720183
KSSF 152153Z 02009G19KT 10SM -RA FEW050 SCT070 OVC100 24/22 A2997 RMK AO2 PK WND 29033/2057 WSHFT 2042 LTG DSNT SW TSE37 SLP137 P0023 T02440217
KSSF 152143Z 36010G18KT 10SM VCTS -RA SCT090 BKN110 25/23 A2997 RMK AO2 PK WND 29033/2057 WSHFT 2042 LTG DSNT ALQDS TSE37 P0023 T02500228
KSSF 152109Z 31010G32KT 3SM +TSRA FEW034 BKN046 OVC060 26/21 A2995 RMK AO2 PK WND 29033/2057 WSHFT 2042 LTG DSNT SW-N P0020 T02560206
KSSF 152056Z 29016G27KT 1 3/4SM +TSRA FEW025 BKN043 OVC049 26/22 A2995 RMK AO2 PK WND 29027/2056 WSHFT 2042 VIS 1 1/4V3 LTG DSNT W-N PRESRR P0005 T02610217
KSSF 152053Z 33012G26KT 2SM +TSRA FEW022 BKN043 OVC049 26/22 A2994 RMK AO2 PK WND 35026/2044 LTG DSNT W-N RAB44 TSB37 PRESRR SLP127 P0019 60019 T02560222 55007
KSSF 152043Z 33012G20KT 300V010 10SM TS BKN042 OVC055 32/21 A2992 RMK AO2 LTG DSNT W AND NW TSB37 T03170211
KSSF 152019Z 06007KT 10SM VCTS SCT041 BKN065 34/23 A2990 RMK AO2 LTG DSNT W AND NW T03390228
KSSF 151953Z 16004KT 10SM FEW039 SCT049 33/22 A2991 RMK AO2 SLP115 T03330222
KSSF 151853Z 00000KT 10SM FEW038 SCT100 33/23 A2994 RMK AO2 SLP124 T03330233
KSSF 151753Z 18003KT 10SM FEW028 BKN034 BKN055 32/24 A2996 RMK AO2 SLP132 T03170239 10322 20256 58003
KSSF 151653Z VRB03KT 10SM BKN037 BKN046 29/24 A2998 RMK AO2 SLP141 T02940244
KSSF 151651Z 16003KT 10SM BKN035 BKN046 29/24 A2998 RMK AO2
KSSF 151600Z 15006KT 6SM HZ BKN011 OVC032 29/25 A2997 RMK AO2 T02890250
KSSF 151553Z 15005KT 5SM HZ BKN015 OVC029 29/25 A2997 RMK AO2 SLP137 T02890250
KSSF 151453Z 00000KT 5SM HZ BKN015 OVC029 27/24 A2995 RMK AO2 SLP132 T02720244 52018
KSSF 151353Z 00000KT 6SM BR BKN012 OVC024 27/25 A2993 RMK AO2 SLP123 T02670250
KSSF 151348Z 00000KT 6SM BR BKN012 OVC022 27/25 A2993 RMK AO2
KSSF 151253Z 00000KT 2SM BR BKN004 OVC009 26/24 A2990 RMK AO2 SLP114 T02610244
KSSF 151245Z 00000KT 2SM BKN004 OVC009 26/24 A2990 RMK AO2 SFC VIS 10 CIG 003V007 T02610244
KSSF 151230Z 00000KT 2SM BKN005 OVC009 26/24 A2989 RMK AO2 SFC VIS 9 CIG 003V007 T02560244
KSSF 151226Z 00000KT 3SM BKN003 OVC009 26/24 A2989 RMK AO2 SFC VIS 8 CIG 003V006 T02560244
KSSF 151153Z 00000KT 10SM OVC005 26/24 A2989 RMK AO2 SLP108 T02560244 10256 20244 53011
KSSF 151053Z AUTO 00000KT 10SM OVC005 26/24 A2987 RMK AO2 CIG 004V008 SLP101 T02560239
KSSF 151005Z AUTO 00000KT 10SM BKN008 OVC013 26/24 A2986 RMK AO2 CIG 005V010 T02560239
KSSF 150953Z AUTO 00000KT 10SM FEW006 OVC013 26/24 A2986 RMK AO2 SLP098 T02560239
KSSF 150939Z AUTO 00000KT 10SM FEW006 OVC013 26/24 A2986 RMK AO2 T02560239
KSSF 150853Z AUTO 00000KT 10SM OVC006 26/24 A2985 RMK AO2 SLP097 T02560239 58001
KSSF 150753Z AUTO 09003KT 10SM OVC007 26/23 A2986 RMK AO2 SLP099 T02560233
KSSF 150701Z AUTO 00000KT 10SM BKN009 25/23 A2986 RMK AO2 T02500233
KSSF 150653Z AUTO 00000KT 10SM BKN011 25/23 A2986 RMK AO2 CIG 009V013 SLP098 T02500233
KSSF 150623Z AUTO 00000KT 10SM BKN011 25/23 A2986 RMK AO2 T02500233